createdAt,value
2023-02-04T00:01:02.804Z,66.10
2023-02-04T00:03:36.766Z,66.10
2023-02-04T00:06:10.063Z,66.10
2023-02-04T00:08:46.223Z,66.10
2023-02-04T00:11:21.471Z,66.10
2023-02-04T00:13:57.546Z,66.10
2023-02-04T00:16:31.526Z,66.00
2023-02-04T00:19:05.073Z,66.00
2023-02-04T00:21:38.854Z,66.00
2023-02-04T00:24:12.257Z,66.10
2023-02-04T00:26:47.541Z,66.10
2023-02-04T00:29:20.839Z,66.10
2023-02-04T00:31:55.150Z,66.10
2023-02-04T00:34:29.159Z,66.20
2023-02-04T00:37:02.779Z,66.20
2023-02-04T00:39:36.651Z,66.20
2023-02-04T00:42:11.750Z,66.20
2023-02-04T00:44:46.680Z,66.20
2023-02-04T00:47:20.752Z,66.30
2023-02-04T00:49:54.602Z,66.50
2023-02-04T00:52:28.348Z,66.30
2023-02-04T00:55:02.009Z,66.40
2023-02-04T00:57:37.106Z,66.40
2023-02-04T01:00:12.972Z,66.60
2023-02-04T01:02:46.704Z,66.50
2023-02-04T01:05:20.279Z,66.60
2023-02-04T01:07:54.014Z,66.50
2023-02-04T01:10:28.106Z,66.50
2023-02-04T01:13:04.353Z,66.50
2023-02-04T01:15:39.147Z,66.50
2023-02-04T01:18:14.490Z,66.60
2023-02-04T01:20:48.115Z,66.60
2023-02-04T01:23:21.593Z,66.60
2023-02-04T01:25:56.110Z,67.30
2023-02-04T01:28:31.366Z,66.60
2023-02-04T01:31:05.747Z,66.60
2023-02-04T01:33:39.479Z,66.70
2023-02-04T01:36:13.902Z,66.60
2023-02-04T01:38:47.680Z,66.70
2023-02-04T01:41:21.706Z,66.60
2023-02-04T01:43:57.530Z,66.60
2023-02-04T01:46:31.205Z,66.70
2023-02-04T01:49:05.321Z,66.80
2023-02-04T01:51:39.546Z,66.60
2023-02-04T01:54:17.563Z,66.80
2023-02-04T01:56:51.785Z,66.70
2023-02-04T01:59:28.410Z,66.80
2023-02-04T02:02:02.595Z,66.80
2023-02-04T02:04:36.590Z,66.70
2023-02-04T02:07:11.876Z,66.50
2023-02-04T02:09:45.458Z,66.80
2023-02-04T02:12:19.154Z,66.70
2023-02-04T02:14:54.112Z,66.80
2023-02-04T02:17:27.831Z,66.70
2023-02-04T02:20:01.648Z,66.80
2023-02-04T02:22:51.650Z,66.90
2023-02-04T02:25:26.656Z,66.90
2023-02-04T02:28:01.782Z,66.80
2023-02-04T02:30:35.570Z,67.60
2023-02-04T02:33:09.806Z,66.80
2023-02-04T02:35:44.184Z,66.80
2023-02-04T02:38:21.146Z,66.90
2023-02-04T02:40:57.172Z,66.90
2023-02-04T02:43:31.201Z,66.80
2023-02-04T02:46:09.234Z,67.00
2023-02-04T02:48:43.032Z,66.90
2023-02-04T02:51:16.537Z,66.90
2023-02-04T02:53:52.028Z,66.90
2023-02-04T02:56:27.256Z,66.90
2023-02-04T02:59:15.412Z,66.80
2023-02-04T03:01:54.980Z,66.90
2023-02-04T03:04:31.991Z,66.90
2023-02-04T03:07:05.900Z,66.90
2023-02-04T03:09:39.871Z,67.00
2023-02-04T03:12:15.593Z,66.90
2023-02-04T03:14:49.256Z,66.90
2023-02-04T03:17:23.615Z,66.90
2023-02-04T03:19:57.883Z,66.90
2023-02-04T03:22:32.515Z,67.10
2023-02-04T03:25:07.290Z,67.00
2023-02-04T03:27:42.161Z,67.00
2023-02-04T03:30:16.041Z,67.70
2023-02-04T03:32:49.906Z,67.00
2023-02-04T03:35:23.286Z,67.00
2023-02-04T03:38:01.324Z,67.00
2023-02-04T03:40:34.802Z,67.10
2023-02-04T03:43:10.033Z,67.10
2023-02-04T03:45:48.481Z,67.00
2023-02-04T03:48:22.169Z,67.10
2023-02-04T03:50:55.979Z,67.00
2023-02-04T03:53:30.856Z,67.10
2023-02-04T03:56:04.757Z,67.10
2023-02-04T03:58:39.615Z,67.20
2023-02-04T04:01:13.078Z,67.10
2023-02-04T04:03:46.792Z,67.10
2023-02-04T04:06:20.404Z,67.20
2023-02-04T04:08:55.282Z,67.20
2023-02-04T04:11:29.038Z,67.20
2023-02-04T04:14:04.300Z,67.30
2023-02-04T04:16:37.847Z,67.30
2023-02-04T04:19:11.383Z,67.30
2023-02-04T04:21:44.859Z,67.30
2023-02-04T04:24:18.122Z,67.30
2023-02-04T04:26:51.762Z,67.40
2023-02-04T04:29:26.763Z,67.40
2023-02-04T04:32:00.613Z,67.30
2023-02-04T04:34:34.186Z,67.40
2023-02-04T04:37:07.628Z,67.50
2023-02-04T04:39:42.241Z,67.40
2023-02-04T04:42:15.750Z,67.40
2023-02-04T04:44:51.208Z,67.40
2023-02-04T04:47:24.995Z,67.40
2023-02-04T04:49:58.590Z,67.40
2023-02-04T04:52:32.289Z,67.30
2023-02-04T04:55:07.423Z,67.30
2023-02-04T04:57:41.344Z,67.40
2023-02-04T05:00:21.560Z,67.30
2023-02-04T05:02:55.750Z,67.50
2023-02-04T05:05:29.725Z,67.40
2023-02-04T05:08:03.394Z,67.40
2023-02-04T05:10:37.139Z,67.40
2023-02-04T05:13:11.513Z,67.40
2023-02-04T05:15:46.876Z,67.50
2023-02-04T05:18:20.399Z,67.40
2023-02-04T05:20:54.149Z,67.40
2023-02-04T05:23:27.631Z,67.40
2023-02-04T05:26:00.992Z,67.40
2023-02-04T05:28:34.474Z,67.40
2023-02-04T05:31:09.873Z,68.10
2023-02-04T05:33:43.395Z,67.40
2023-02-04T05:36:17.893Z,67.40
2023-02-04T05:38:51.327Z,68.20
2023-02-04T05:41:24.929Z,67.50
2023-02-04T05:43:58.508Z,67.50
2023-02-04T05:46:34.535Z,67.50
2023-02-04T05:49:08.799Z,67.50
2023-02-04T05:51:42.201Z,67.50
2023-02-04T05:54:19.631Z,67.60
2023-02-04T05:56:53.622Z,67.70
2023-02-04T05:59:27.346Z,67.60
2023-02-04T06:02:02.456Z,67.60
2023-02-04T06:04:35.843Z,67.60
2023-02-04T06:07:09.185Z,67.70
2023-02-04T06:09:42.479Z,67.70
2023-02-04T06:12:15.926Z,67.60
2023-02-04T06:14:49.469Z,67.70
2023-02-04T06:17:24.468Z,67.80
2023-02-04T06:19:58.521Z,67.70
2023-02-04T06:22:32.702Z,67.80
2023-02-04T06:25:07.242Z,67.80
2023-02-04T06:27:40.874Z,67.80
2023-02-04T06:30:16.511Z,67.80
2023-02-04T06:32:51.666Z,67.80
2023-02-04T06:35:25.165Z,67.80
2023-02-04T06:37:58.524Z,67.80
2023-02-04T06:40:32.631Z,67.70
2023-02-04T06:43:06.500Z,67.80
2023-02-04T06:45:40.201Z,67.80
2023-02-04T06:48:16.467Z,67.80
2023-02-04T06:50:50.420Z,67.80
2023-02-04T06:53:24.124Z,67.70
2023-02-04T06:55:57.907Z,67.70
2023-02-04T06:58:31.549Z,67.80
2023-02-04T07:01:06.649Z,67.80
2023-02-04T07:03:41.289Z,67.80
2023-02-04T07:06:15.013Z,67.80
2023-02-04T07:08:49.672Z,67.90
2023-02-04T07:11:23.443Z,67.90
2023-02-04T07:13:57.239Z,67.90
2023-02-04T07:16:30.912Z,67.90
2023-02-04T07:19:06.319Z,67.90
2023-02-04T07:21:40.434Z,67.90
2023-02-04T07:24:13.777Z,67.90
2023-02-04T07:26:47.823Z,67.90
2023-02-04T07:29:25.613Z,67.90
2023-02-04T07:31:59.815Z,67.90
2023-02-04T07:34:34.662Z,68.00
2023-02-04T07:37:08.383Z,67.90
2023-02-04T07:39:42.388Z,67.90
2023-02-04T07:42:17.275Z,67.90
2023-02-04T07:44:50.515Z,67.90
2023-02-04T07:47:24.337Z,68.00
2023-02-04T07:49:59.590Z,67.90
2023-02-04T07:52:33.257Z,68.00
2023-02-04T07:55:08.219Z,68.00
2023-02-04T07:57:41.884Z,68.10
2023-02-04T08:00:16.980Z,68.10
2023-02-04T08:02:51.001Z,68.10
2023-02-04T08:05:26.658Z,68.10
2023-02-04T08:08:03.337Z,68.20
2023-02-04T08:10:37.159Z,68.20
2023-02-04T08:13:10.784Z,68.20
2023-02-04T08:15:44.745Z,68.20
2023-02-04T08:18:18.325Z,68.30
2023-02-04T08:20:53.383Z,68.30
2023-02-04T08:23:28.366Z,68.30
2023-02-04T08:26:02.711Z,68.20
2023-02-04T08:28:36.289Z,68.30
2023-02-04T08:31:12.298Z,68.20
2023-02-04T08:33:46.175Z,68.20
2023-02-04T08:36:21.487Z,68.20
2023-02-04T08:39:00.497Z,68.20
2023-02-04T08:41:34.596Z,68.30
2023-02-04T08:44:08.284Z,68.10
2023-02-04T08:46:42.203Z,68.20
2023-02-04T08:49:15.755Z,68.30
2023-02-04T08:51:51.375Z,68.30
2023-02-04T08:54:26.491Z,68.40
2023-02-04T08:57:00.419Z,68.40
2023-02-04T08:59:34.002Z,68.50
2023-02-04T09:02:08.011Z,68.50
2023-02-04T09:04:41.919Z,68.50
2023-02-04T09:07:16.673Z,68.50
2023-02-04T09:09:50.392Z,69.20
2023-02-04T09:12:24.322Z,68.40
2023-02-04T09:14:57.862Z,68.50
2023-02-04T09:17:31.496Z,68.50
2023-02-04T09:20:06.307Z,68.50
2023-02-04T09:22:41.370Z,68.50
2023-02-04T09:25:15.545Z,68.40
2023-02-04T09:27:49.279Z,68.30
2023-02-04T09:30:23.044Z,67.60
2023-02-04T09:32:56.789Z,68.20
2023-02-04T09:35:30.601Z,68.20
2023-02-04T09:38:06.504Z,68.30
2023-02-04T09:40:46.189Z,68.40
2023-02-04T09:43:26.657Z,68.30
2023-02-04T09:46:00.963Z,68.30
2023-02-04T09:48:35.220Z,68.30
2023-02-04T09:51:09.917Z,68.30
2023-02-04T09:53:45.418Z,68.30
2023-02-04T09:56:19.661Z,68.20
2023-02-04T09:58:53.444Z,68.20
2023-02-04T10:01:29.967Z,68.30
2023-02-04T10:04:04.181Z,68.30
2023-02-04T10:06:38.258Z,68.10
2023-02-04T10:09:15.819Z,68.10
2023-02-04T10:11:50.698Z,68.30
2023-02-04T10:14:25.691Z,68.30
2023-02-04T10:17:02.675Z,68.30
2023-02-04T10:19:40.754Z,68.20
2023-02-04T10:22:21.384Z,68.30
2023-02-04T10:24:56.734Z,68.20
2023-02-04T10:27:31.256Z,68.00
2023-02-04T10:30:05.733Z,68.10
2023-02-04T10:32:40.104Z,68.80
2023-02-04T10:35:17.285Z,68.00
2023-02-04T10:38:05.501Z,68.20
2023-02-04T10:40:41.348Z,68.30
2023-02-04T10:43:18.901Z,68.00
2023-02-04T10:46:00.097Z,68.40
2023-02-04T10:48:42.928Z,68.10
2023-02-04T10:51:16.651Z,67.80
2023-02-04T10:54:08.786Z,67.60
2023-02-04T10:56:45.282Z,67.10
2023-02-04T10:59:28.389Z,67.20
2023-02-04T11:02:29.210Z,67.10
2023-02-04T11:05:03.947Z,67.00
2023-02-04T11:07:38.021Z,67.00
2023-02-04T11:10:17.455Z,67.10
2023-02-04T11:13:06.712Z,67.80
2023-02-04T11:15:50.163Z,67.00
2023-02-04T11:18:31.686Z,66.90
2023-02-04T11:21:23.226Z,66.60
2023-02-04T11:24:24.171Z,66.20
2023-02-04T11:27:10.475Z,66.10
2023-02-04T11:29:45.221Z,66.10
2023-02-04T11:32:36.263Z,66.20
2023-02-04T11:35:29.227Z,66.10
2023-02-04T11:38:03.089Z,66.10
2023-02-04T11:40:40.861Z,66.20
2023-02-04T11:43:17.710Z,66.30
2023-02-04T11:46:06.475Z,66.30
2023-02-04T11:48:41.278Z,66.10
2023-02-04T11:51:18.796Z,66.20
2023-02-04T11:53:54.643Z,66.40
2023-02-04T11:56:31.708Z,66.50
2023-02-04T11:59:05.970Z,66.70
2023-02-04T12:01:41.852Z,66.70
2023-02-04T12:04:26.282Z,66.50
2023-02-04T12:07:03.974Z,66.40
2023-02-04T12:09:50.293Z,66.30
2023-02-04T12:12:30.363Z,66.10
2023-02-04T12:15:15.978Z,66.00
2023-02-04T12:18:04.273Z,66.00
2023-02-04T12:20:38.608Z,65.70
2023-02-04T12:23:12.413Z,65.70
2023-02-04T12:25:45.881Z,65.50
2023-02-04T12:28:20.163Z,65.40
2023-02-04T12:30:54.118Z,65.20
2023-02-04T12:33:31.531Z,64.90
2023-02-04T12:36:06.155Z,64.90
2023-02-04T12:38:40.593Z,65.00
2023-02-04T12:41:14.463Z,65.00
2023-02-04T12:43:50.560Z,65.00
2023-02-04T12:46:26.057Z,65.30
2023-02-04T12:49:01.105Z,65.30
2023-02-04T12:51:34.831Z,65.30
2023-02-04T12:54:10.277Z,65.10
2023-02-04T12:56:43.808Z,65.00
2023-02-04T12:59:18.914Z,65.00
2023-02-04T13:01:53.612Z,65.00
2023-02-04T13:04:28.504Z,64.70
2023-02-04T13:07:03.655Z,64.60
2023-02-04T13:09:38.610Z,64.50
2023-02-04T13:12:13.647Z,64.60
2023-02-04T13:14:47.536Z,64.90
2023-02-04T13:17:21.157Z,64.30
2023-02-04T13:19:56.393Z,64.40
2023-02-04T13:22:30.144Z,64.40
2023-02-04T13:25:04.267Z,64.50
2023-02-04T13:27:38.300Z,64.20
2023-02-04T13:30:15.951Z,64.20
2023-02-04T13:32:51.477Z,64.30
2023-02-04T13:35:27.498Z,64.20
2023-02-04T13:38:01.572Z,64.10
2023-02-04T13:40:35.710Z,64.20
2023-02-04T13:43:09.319Z,64.00
2023-02-04T13:45:47.837Z,63.90
2023-02-04T13:48:21.882Z,63.80
2023-02-04T13:50:57.092Z,63.80
2023-02-04T13:53:31.292Z,63.30
2023-02-04T13:56:05.240Z,63.40
2023-02-04T13:58:43.992Z,63.20
2023-02-04T14:01:17.535Z,63.50
2023-02-04T14:03:51.797Z,63.40
2023-02-04T14:06:35.220Z,63.50
2023-02-04T14:09:08.745Z,63.20
2023-02-04T14:11:42.226Z,63.00
2023-02-04T14:14:16.043Z,62.90
2023-02-04T14:16:50.010Z,62.80
2023-02-04T14:19:27.859Z,62.60
2023-02-04T14:22:02.862Z,62.60
2023-02-04T14:24:42.531Z,62.70
2023-02-04T14:27:16.341Z,62.70
2023-02-04T14:29:49.666Z,62.60
2023-02-04T14:32:23.491Z,62.60
2023-02-04T14:34:57.237Z,62.80
2023-02-04T14:37:32.564Z,62.70
2023-02-04T14:40:07.556Z,62.70
2023-02-04T14:42:41.386Z,62.60
2023-02-04T14:45:16.590Z,62.40
2023-02-04T14:47:51.885Z,62.40
2023-02-04T14:50:28.740Z,62.20
2023-02-04T14:53:04.032Z,62.20
2023-02-04T14:55:37.949Z,62.70
2023-02-04T14:58:11.751Z,62.00
2023-02-04T15:00:45.472Z,61.80
2023-02-04T15:03:19.563Z,61.70
2023-02-04T15:05:52.862Z,61.70
2023-02-04T15:08:32.732Z,61.60
2023-02-04T15:11:06.584Z,61.50
2023-02-04T15:13:40.240Z,61.40
2023-02-04T15:16:14.877Z,61.50
2023-02-04T15:18:49.180Z,61.60
2023-02-04T15:21:23.048Z,61.60
2023-02-04T15:23:58.066Z,61.50
2023-02-04T15:26:33.219Z,61.60
2023-02-04T15:29:10.184Z,61.70
2023-02-04T15:31:44.048Z,62.50
2023-02-04T15:34:18.012Z,61.80
2023-02-04T15:36:51.929Z,62.00
2023-02-04T15:39:27.959Z,62.10
2023-02-04T15:42:01.773Z,61.90
2023-02-04T15:44:36.892Z,61.70
2023-02-04T15:47:10.746Z,61.50
2023-02-04T15:49:44.576Z,61.50
2023-02-04T15:52:24.792Z,61.40
2023-02-04T15:55:00.210Z,61.50
2023-02-04T15:57:34.078Z,61.20
2023-02-04T16:00:09.770Z,61.40
2023-02-04T16:02:43.504Z,61.50
2023-02-04T16:05:17.139Z,61.50
2023-02-04T16:07:50.821Z,61.70
2023-02-04T16:10:25.958Z,61.70
2023-02-04T16:13:00.260Z,61.80
2023-02-04T16:15:34.688Z,61.80
2023-02-04T16:18:08.975Z,61.90
2023-02-04T16:20:42.932Z,61.90
2023-02-04T16:23:16.670Z,61.90
2023-02-04T16:25:52.085Z,61.80
2023-02-04T16:28:25.566Z,61.60
2023-02-04T16:30:59.083Z,61.90
2023-02-04T16:33:32.510Z,61.80
2023-02-04T16:36:12.129Z,61.80
2023-02-04T16:38:45.681Z,62.00
2023-02-04T16:41:20.607Z,61.90
2023-02-04T16:43:54.301Z,61.90
2023-02-04T16:46:30.791Z,62.00
2023-02-04T16:49:05.075Z,62.20
2023-02-04T16:51:38.537Z,62.10
2023-02-04T16:54:12.043Z,62.00
2023-02-04T16:56:47.089Z,62.20
2023-02-04T16:59:20.508Z,62.20
2023-02-04T17:01:54.390Z,62.30
2023-02-04T17:04:29.022Z,62.30
2023-02-04T17:07:02.808Z,62.60
2023-02-04T17:09:37.385Z,63.30
2023-02-04T17:12:12.921Z,63.20
2023-02-04T17:14:47.481Z,62.50
2023-02-04T17:17:21.013Z,62.50
2023-02-04T17:19:54.660Z,62.60
2023-02-04T17:22:28.265Z,62.50
2023-02-04T17:25:01.975Z,62.60
2023-02-04T17:27:37.189Z,62.60
2023-02-04T17:30:14.145Z,62.60
2023-02-04T17:32:48.289Z,62.60
2023-02-04T17:35:22.139Z,62.60
2023-02-04T17:37:57.969Z,62.50
2023-02-04T17:40:31.690Z,62.50
2023-02-04T17:43:07.905Z,62.60
2023-02-04T17:45:41.841Z,62.40
2023-02-04T17:48:15.573Z,62.40
2023-02-04T17:50:49.524Z,62.30
2023-02-04T17:53:24.740Z,62.30
2023-02-04T17:55:58.265Z,62.20
2023-02-04T17:58:36.244Z,62.20
2023-02-04T18:01:13.905Z,62.40
2023-02-04T18:03:47.625Z,62.30
2023-02-04T18:06:24.565Z,62.20
2023-02-04T18:09:02.073Z,62.30
2023-02-04T18:11:41.872Z,62.20
2023-02-04T18:14:21.167Z,62.30
2023-02-04T18:16:58.752Z,62.20
2023-02-04T18:19:37.328Z,62.20
2023-02-04T18:22:15.701Z,62.20
2023-02-04T18:24:49.703Z,62.30
2023-02-04T18:27:25.873Z,62.20
2023-02-04T18:30:02.051Z,62.30
2023-02-04T18:32:40.386Z,62.30
2023-02-04T18:35:42.377Z,62.40
2023-02-04T18:38:27.762Z,62.70
2023-02-04T18:41:31.638Z,62.40
2023-02-04T18:44:30.256Z,62.70
2023-02-04T18:47:29.564Z,62.70
2023-02-04T18:50:21.880Z,62.60
2023-02-04T18:52:59.050Z,62.70
2023-02-04T18:55:37.572Z,62.80
2023-02-04T18:58:31.527Z,62.80
2023-02-04T19:01:17.010Z,62.80
2023-02-04T19:03:56.275Z,63.60
2023-02-04T19:06:34.238Z,62.90
2023-02-04T19:09:22.745Z,63.00
2023-02-04T19:11:58.004Z,62.90
2023-02-04T19:14:39.241Z,63.00
2023-02-04T19:17:26.243Z,63.20
2023-02-04T19:20:03.323Z,63.10
2023-02-04T19:22:46.468Z,63.20
2023-02-04T19:25:31.231Z,63.40
2023-02-04T19:28:35.167Z,63.30
2023-02-04T19:31:09.904Z,63.30
2023-02-04T19:33:46.530Z,63.30
2023-02-04T19:36:35.231Z,64.10
2023-02-04T19:39:29.727Z,63.50
2023-02-04T19:42:18.438Z,63.60
2023-02-04T19:44:53.169Z,63.60
2023-02-04T19:47:30.543Z,63.70
2023-02-04T19:50:29.213Z,63.70
2023-02-04T19:53:16.279Z,63.70
2023-02-04T19:55:53.103Z,63.80
2023-02-04T19:58:31.232Z,64.00
2023-02-04T20:01:08.678Z,64.00
2023-02-04T20:03:44.166Z,64.00
2023-02-04T20:06:32.857Z,64.10
2023-02-04T20:09:15.165Z,64.20
2023-02-04T20:12:06.633Z,64.20
2023-02-04T20:14:56.143Z,64.20
2023-02-04T20:17:42.562Z,64.20
2023-02-04T20:20:28.911Z,64.30
2023-02-04T20:23:16.238Z,64.30
2023-02-04T20:25:51.764Z,64.40
2023-02-04T20:28:41.558Z,64.30
2023-02-04T20:31:25.923Z,64.50
2023-02-04T20:34:01.734Z,64.70
2023-02-04T20:36:42.767Z,64.50
2023-02-04T20:39:41.372Z,64.60
2023-02-04T20:42:47.641Z,64.60
2023-02-04T20:45:36.189Z,64.70
2023-02-04T20:48:33.091Z,64.70
2023-02-04T20:51:22.179Z,64.70
2023-02-04T20:54:03.027Z,64.70
2023-02-04T20:56:41.163Z,64.70
2023-02-04T20:59:33.775Z,64.70
2023-02-04T21:02:19.046Z,64.70
2023-02-04T21:04:54.092Z,64.60
2023-02-04T21:07:29.422Z,64.60
2023-02-04T21:10:04.431Z,64.60
2023-02-04T21:12:41.720Z,64.30
2023-02-04T21:15:17.389Z,64.20
2023-02-04T21:17:51.314Z,64.50
2023-02-04T21:20:25.533Z,64.50
2023-02-04T21:22:58.813Z,64.50
2023-02-04T21:25:32.987Z,64.60
2023-02-04T21:28:07.227Z,64.80
2023-02-04T21:30:43.625Z,64.90
2023-02-04T21:33:17.382Z,64.90
2023-02-04T21:35:51.062Z,65.00
2023-02-04T21:38:24.887Z,65.10
2023-02-04T21:40:58.501Z,65.20
2023-02-04T21:43:32.388Z,65.10
2023-02-04T21:46:07.863Z,65.20
2023-02-04T21:48:41.571Z,65.20
2023-02-04T21:51:16.791Z,65.40
2023-02-04T21:53:50.535Z,65.30
2023-02-04T21:56:24.911Z,65.20
2023-02-04T21:58:59.718Z,65.30
2023-02-04T22:01:35.705Z,65.30
2023-02-04T22:04:09.397Z,65.30
2023-02-04T22:06:42.850Z,65.40
2023-02-04T22:09:17.032Z,65.50
2023-02-04T22:11:50.329Z,65.60
2023-02-04T22:14:24.148Z,65.60
2023-02-04T22:16:59.151Z,65.50
2023-02-04T22:19:32.572Z,65.60
2023-02-04T22:22:05.938Z,65.50
2023-02-04T22:24:39.896Z,65.60
2023-02-04T22:27:13.826Z,65.60
2023-02-04T22:29:47.458Z,65.60
2023-02-04T22:32:22.893Z,65.70
2023-02-04T22:34:56.624Z,65.60
2023-02-04T22:37:30.033Z,65.50
2023-02-04T22:40:03.882Z,65.60
2023-02-04T22:42:37.799Z,66.30
2023-02-04T22:45:11.664Z,65.70
2023-02-04T22:47:47.225Z,65.70
2023-02-04T22:50:21.209Z,65.70
2023-02-04T22:52:54.829Z,65.80
2023-02-04T22:55:28.512Z,65.90
2023-02-04T22:58:02.027Z,66.60
2023-02-04T23:00:36.384Z,66.20
2023-02-04T23:03:11.501Z,66.10
2023-02-04T23:05:45.578Z,66.10
2023-02-04T23:08:19.349Z,66.20
2023-02-04T23:10:53.207Z,66.30
2023-02-04T23:13:26.831Z,66.30
2023-02-04T23:16:00.333Z,66.40
2023-02-04T23:18:35.474Z,66.40
2023-02-04T23:21:10.550Z,66.50
2023-02-04T23:23:44.684Z,66.60
2023-02-04T23:26:18.361Z,66.60
2023-02-04T23:28:52.189Z,66.70
2023-02-04T23:31:26.263Z,66.80
2023-02-04T23:34:01.267Z,66.80
2023-02-04T23:36:36.842Z,66.80
2023-02-04T23:39:10.632Z,66.80
2023-02-04T23:41:44.371Z,66.80
2023-02-04T23:44:18.914Z,66.90
2023-02-04T23:46:53.884Z,67.00
2023-02-04T23:49:29.170Z,67.00
2023-02-04T23:52:03.061Z,67.00
2023-02-04T23:54:39.970Z,67.10
2023-02-04T23:57:13.666Z,67.10
2023-02-04T23:59:47.209Z,67.30
